createdAt,value
2022-10-24T00:01:14.483Z,3.22
2022-10-24T00:03:41.407Z,3.70
2022-10-24T00:06:09.656Z,3.90
2022-10-24T00:08:37.885Z,3.20
2022-10-24T00:11:10.134Z,3.55
2022-10-24T00:13:37.249Z,4.07
2022-10-24T00:16:03.961Z,4.07
2022-10-24T00:18:30.629Z,3.22
2022-10-24T00:20:57.561Z,3.50
2022-10-24T00:23:24.230Z,2.90
2022-10-24T00:25:50.799Z,3.28
2022-10-24T00:28:17.398Z,4.45
2022-10-24T00:30:43.962Z,3.33
2022-10-24T00:33:10.572Z,3.42
2022-10-24T00:35:37.144Z,3.58
2022-10-24T00:38:03.732Z,3.33
2022-10-24T00:40:30.370Z,3.88
2022-10-24T00:42:57.016Z,3.38
2022-10-24T00:45:57.816Z,3.22
2022-10-24T00:48:31.838Z,4.35
2022-10-24T00:51:03.163Z,3.95
2022-10-24T00:53:33.909Z,4.68
2022-10-24T00:56:03.376Z,3.55
2022-10-24T01:00:57.695Z,3.38
2022-10-24T01:03:24.664Z,3.35
2022-10-24T01:05:54.169Z,4.00
2022-10-24T01:08:37.241Z,4.03
2022-10-24T01:11:31.278Z,4.43
2022-10-24T01:14:18.114Z,3.90
2022-10-24T01:16:51.777Z,4.82
2022-10-24T01:19:27.424Z,3.35
2022-10-24T01:22:01.870Z,3.65
2022-10-24T01:24:55.453Z,4.15
2022-10-24T01:28:03.582Z,3.97
2022-10-24T01:30:33.104Z,4.97
2022-10-24T01:36:10.795Z,5.20
2022-10-24T01:38:55.145Z,5.97
2022-10-24T01:41:25.282Z,5.85
2022-10-24T01:44:03.155Z,5.22
2022-10-24T01:46:35.176Z,6.07
2022-10-24T01:49:15.825Z,6.38
2022-10-24T01:51:44.820Z,5.20
2022-10-24T01:54:12.646Z,4.50
2022-10-24T01:56:39.402Z,6.05
2022-10-24T01:59:08.507Z,5.10
2022-10-24T02:01:37.088Z,11.43
2022-10-24T02:04:10.189Z,5.43
2022-10-24T02:06:41.836Z,8.23
2022-10-24T02:09:13.639Z,4.90
2022-10-24T02:11:41.910Z,6.32
2022-10-24T02:14:16.771Z,5.47
2022-10-24T02:16:44.959Z,6.25
2022-10-24T02:19:14.121Z,6.20
2022-10-24T02:22:08.968Z,5.45
2022-10-24T02:24:45.118Z,4.85
2022-10-24T02:27:33.719Z,5.35
2022-10-24T02:30:14.142Z,5.27
2022-10-24T02:32:48.179Z,7.38
2022-10-24T02:35:17.922Z,5.93
2022-10-24T02:37:50.249Z,6.03
2022-10-24T02:40:19.436Z,6.15
2022-10-24T02:42:49.847Z,5.07
2022-10-24T02:45:18.212Z,5.80
2022-10-24T02:47:46.178Z,4.90
2022-10-24T02:50:13.682Z,5.00
2022-10-24T02:52:43.150Z,6.38
2022-10-24T02:55:11.656Z,5.35
2022-10-24T02:57:38.966Z,8.20
2022-10-24T03:00:07.518Z,9.23
2022-10-24T03:02:34.233Z,6.53
2022-10-24T03:05:00.783Z,8.30
2022-10-24T03:07:27.559Z,6.25
2022-10-24T03:09:54.240Z,6.38
2022-10-24T09:15:30.942Z,3.03
2022-10-24T09:17:59.537Z,2.60
2022-10-24T09:20:29.586Z,2.53
2022-10-24T09:23:00.751Z,2.72
2022-10-24T09:25:32.122Z,2.60
2022-10-24T09:28:01.563Z,2.47
2022-10-24T09:33:12.908Z,2.38
2022-10-24T09:35:40.364Z,2.53
2022-10-24T09:38:26.586Z,2.63
2022-10-24T09:40:56.183Z,2.92
2022-10-24T09:43:32.660Z,2.55
2022-10-24T09:45:59.134Z,2.90
2022-10-24T09:48:30.748Z,2.60
2022-10-24T09:50:59.070Z,2.20
2022-10-24T09:53:30.574Z,2.08
2022-10-24T09:56:06.918Z,2.20
2022-10-24T09:58:34.069Z,2.50
2022-10-24T10:01:16.573Z,2.30
2022-10-24T10:03:43.839Z,2.28
2022-10-24T10:06:19.566Z,2.28
2022-10-24T10:08:51.513Z,2.38
2022-10-24T10:11:30.750Z,2.28
2022-10-24T10:14:00.405Z,3.00
2022-10-24T10:16:39.263Z,2.28
2022-10-24T10:19:38.305Z,2.22
2022-10-24T10:22:23.410Z,2.80
2022-10-24T10:24:50.095Z,2.35
2022-10-24T10:27:33.900Z,2.40
2022-10-24T10:30:13.471Z,2.80
2022-10-24T10:33:06.736Z,2.13
2022-10-24T10:35:44.807Z,2.35
2022-10-24T10:38:32.057Z,2.30
2022-10-24T10:41:27.652Z,2.40
2022-10-24T10:44:12.308Z,2.38
2022-10-24T10:46:49.927Z,2.92
2022-10-24T10:49:16.530Z,2.25
2022-10-24T10:51:54.952Z,2.90
2022-10-24T10:54:33.485Z,2.60
2022-10-24T10:57:11.614Z,2.77
2022-10-24T10:59:38.183Z,2.90
2022-10-24T11:02:44.743Z,2.58
2022-10-24T11:05:24.838Z,2.78
2022-10-24T11:08:00.766Z,2.58
2022-10-24T11:10:35.440Z,2.40
2022-10-24T11:13:07.777Z,2.67
2022-10-24T11:15:40.351Z,2.90
2022-10-24T11:18:16.485Z,2.92
2022-10-24T11:20:51.282Z,2.80
2022-10-24T11:23:46.794Z,4.05
2022-10-24T11:26:26.961Z,2.58
2022-10-24T11:29:03.058Z,2.75
2022-10-24T11:31:38.164Z,2.47
2022-10-24T11:34:32.701Z,2.65
2022-10-24T11:37:11.557Z,2.72
2022-10-24T11:39:44.373Z,2.47
2022-10-24T11:42:20.172Z,2.70
2022-10-24T11:44:54.861Z,3.50
2022-10-24T11:47:24.360Z,2.80
2022-10-24T11:49:54.250Z,3.20
2022-10-24T11:52:27.541Z,2.70
2022-10-24T11:55:01.970Z,2.70
2022-10-24T11:57:31.577Z,2.85
2022-10-24T11:59:58.924Z,2.50
2022-10-24T12:02:44.595Z,2.78
2022-10-24T12:05:24.224Z,2.72
2022-10-24T12:08:35.883Z,2.35
2022-10-24T12:12:00.415Z,2.45
2022-10-24T12:14:45.209Z,2.85
2022-10-24T12:17:26.370Z,3.05
2022-10-24T12:19:53.239Z,2.60
2022-10-24T12:28:17.826Z,2.50
2022-10-24T12:31:11.802Z,2.50
2022-10-24T12:33:38.376Z,2.25
2022-10-24T12:36:05.489Z,2.35
2022-10-24T12:38:32.041Z,2.42
2022-10-24T12:41:05.862Z,2.67
2022-10-24T12:43:38.553Z,2.65
2022-10-24T12:46:22.870Z,3.00
2022-10-24T12:48:59.319Z,2.67
2022-10-24T12:51:33.266Z,2.58
2022-10-24T12:54:17.201Z,2.85
2022-10-24T12:56:49.741Z,2.15
2022-10-24T12:59:20.043Z,2.20
2022-10-24T13:01:49.219Z,2.35
2022-10-24T13:04:37.540Z,2.45
2022-10-24T13:07:10.095Z,2.13
2022-10-24T13:09:55.722Z,2.20
2022-10-24T13:12:44.041Z,2.55
2022-10-24T13:15:49.119Z,2.17
2022-10-24T13:18:24.919Z,2.28
2022-10-24T13:21:14.942Z,2.40
2022-10-24T13:23:44.811Z,2.40
2022-10-24T13:26:31.018Z,2.40
2022-10-24T13:28:57.614Z,2.50
2022-10-24T13:31:24.102Z,2.40
2022-10-24T13:33:53.291Z,2.20
2022-10-24T13:36:28.526Z,2.17
2022-10-24T13:38:58.254Z,2.22
2022-10-24T13:41:42.143Z,2.33
2022-10-24T13:44:19.149Z,2.33
2022-10-24T13:46:57.202Z,2.10
2022-10-24T13:49:38.272Z,1.75
2022-10-24T13:52:20.116Z,2.53
2022-10-24T13:54:54.327Z,2.25
2022-10-24T13:57:27.617Z,2.10
2022-10-24T13:59:56.767Z,2.20
2022-10-24T14:02:29.771Z,2.40
2022-10-24T14:05:00.390Z,2.13
2022-10-24T14:07:30.698Z,1.92
2022-10-24T14:10:03.948Z,2.20
2022-10-24T14:12:33.404Z,1.90
2022-10-24T14:15:02.694Z,2.30
2022-10-24T14:20:30.149Z,2.40
2022-10-24T14:22:57.807Z,2.58
2022-10-24T14:25:26.909Z,2.30
2022-10-24T14:27:55.841Z,2.30
2022-10-24T14:30:25.674Z,2.20
2022-10-24T14:33:05.960Z,2.13
2022-10-24T14:35:33.883Z,1.88
2022-10-24T14:38:00.977Z,2.38
2022-10-24T14:40:29.983Z,2.10
2022-10-24T14:42:56.770Z,1.98
2022-10-24T14:45:30.271Z,2.35
2022-10-24T14:47:59.332Z,1.90
2022-10-24T14:50:43.174Z,2.10
2022-10-24T14:53:27.306Z,2.60
2022-10-24T14:55:57.027Z,2.17
2022-10-24T14:58:33.581Z,2.03
2022-10-24T15:01:00.836Z,2.10
2022-10-24T15:03:28.851Z,2.30
2022-10-24T15:06:06.935Z,2.60
2022-10-24T15:08:43.411Z,2.38
2022-10-24T15:11:25.397Z,2.08
2022-10-24T15:14:06.706Z,1.95
2022-10-24T15:16:39.614Z,2.13
2022-10-24T15:19:12.738Z,1.98
2022-10-24T15:21:46.347Z,2.00
2022-10-24T15:24:26.719Z,2.03
2022-10-24T15:27:08.283Z,2.05
2022-10-24T15:29:34.877Z,1.67
2022-10-24T15:32:01.509Z,2.35
2022-10-24T15:34:29.943Z,2.03
2022-10-24T15:36:57.553Z,1.90
2022-10-24T15:39:25.312Z,1.98
2022-10-24T15:41:52.954Z,2.25
2022-10-24T15:44:29.431Z,1.73
2022-10-24T15:46:56.639Z,2.10
2022-10-24T15:49:23.301Z,2.10
2022-10-24T15:51:50.966Z,2.47
2022-10-24T15:54:20.199Z,1.98
2022-10-24T15:56:47.219Z,2.42
2022-10-24T15:59:13.989Z,2.25
2022-10-24T16:02:03.032Z,2.38
2022-10-24T16:04:32.478Z,2.40
2022-10-24T16:09:27.580Z,1.90
2022-10-24T16:11:55.000Z,2.10
2022-10-24T16:14:23.206Z,2.25
2022-10-24T16:16:49.793Z,2.47
2022-10-24T16:19:16.528Z,2.00
2022-10-24T16:21:43.412Z,1.67
2022-10-24T16:24:10.770Z,2.28
2022-10-24T16:26:37.789Z,1.88
2022-10-24T16:29:05.169Z,1.92
2022-10-24T16:31:32.152Z,2.10
2022-10-24T16:33:59.323Z,2.17
2022-10-24T16:36:26.599Z,2.00
2022-10-24T16:38:53.239Z,1.60
2022-10-24T16:41:22.831Z,1.80
2022-10-24T16:43:50.113Z,1.92
2022-10-24T16:46:21.435Z,1.75
2022-10-24T16:48:49.106Z,2.30
2022-10-24T16:51:21.063Z,2.17
2022-10-24T16:53:47.858Z,2.28
2022-10-24T16:56:15.689Z,1.77
2022-10-24T16:58:43.234Z,2.20
2022-10-24T17:01:13.707Z,1.70
2022-10-24T17:03:41.285Z,1.85
2022-10-24T17:06:08.885Z,1.60
2022-10-24T17:08:35.488Z,2.08
2022-10-24T17:11:02.256Z,1.52
2022-10-24T17:13:29.194Z,1.45
2022-10-24T17:15:56.596Z,1.63
2022-10-24T17:18:25.465Z,1.70
2022-10-24T17:20:58.950Z,2.17
2022-10-24T17:23:26.235Z,2.15
2022-10-24T17:25:53.140Z,1.98
2022-10-24T17:28:20.045Z,1.80
2022-10-24T17:30:47.121Z,1.83
2022-10-24T17:33:14.760Z,1.55
2022-10-24T17:35:47.899Z,1.90
2022-10-24T17:38:14.393Z,1.83
2022-10-24T17:40:45.367Z,2.05
2022-10-24T17:43:21.342Z,2.13
2022-10-24T17:45:48.838Z,2.60
2022-10-24T17:48:16.099Z,2.45
2022-10-24T17:50:43.086Z,1.80
2022-10-24T17:53:14.287Z,2.25
2022-10-24T17:55:48.293Z,2.28
2022-10-24T17:58:16.018Z,2.75
2022-10-24T18:00:42.829Z,2.70
2022-10-24T18:03:09.571Z,3.45
2022-10-24T18:05:38.349Z,2.97
2022-10-24T18:08:09.842Z,2.65
2022-10-24T18:10:38.116Z,3.03
2022-10-24T18:13:05.060Z,2.25
2022-10-24T18:15:32.019Z,2.30
2022-10-24T18:17:58.617Z,2.10
2022-10-24T18:20:25.174Z,2.20
2022-10-24T18:22:51.897Z,2.47
2022-10-24T18:25:22.677Z,2.88
2022-10-24T18:27:50.667Z,2.50
2022-10-24T18:30:17.320Z,1.92
2022-10-24T18:32:44.570Z,2.20
2022-10-24T18:35:12.145Z,2.40
2022-10-24T18:37:38.920Z,2.38
2022-10-24T18:40:07.800Z,3.03
2022-10-24T18:42:48.452Z,2.03
2022-10-24T18:45:22.106Z,2.83
2022-10-24T18:47:50.157Z,2.10
2022-10-24T18:50:23.237Z,2.08
2022-10-24T18:53:07.636Z,2.35
2022-10-24T18:55:35.501Z,2.90
2022-10-24T18:58:02.918Z,2.60
2022-10-24T19:00:32.742Z,2.30
2022-10-24T19:03:18.351Z,2.22
2022-10-24T19:05:53.786Z,2.00
2022-10-24T19:08:24.769Z,2.22
2022-10-24T19:10:53.431Z,2.45
2022-10-24T19:13:20.273Z,1.95
2022-10-24T19:15:53.761Z,2.55
2022-10-24T19:18:20.634Z,2.15
2022-10-24T19:20:47.289Z,1.83
2022-10-24T19:23:15.513Z,2.45
2022-10-24T19:25:42.185Z,2.28
2022-10-24T19:28:11.376Z,2.15
2022-10-24T19:30:40.863Z,1.85
2022-10-24T19:33:07.391Z,1.60
2022-10-24T19:35:37.343Z,2.25
2022-10-24T19:38:04.144Z,1.90
2022-10-24T19:40:30.735Z,2.03
2022-10-24T19:42:57.875Z,2.05
2022-10-24T19:45:25.400Z,2.17
2022-10-24T19:47:55.684Z,2.10
2022-10-24T19:50:22.429Z,2.00
2022-10-24T19:52:48.935Z,2.35
2022-10-24T19:55:15.594Z,2.30
2022-10-24T19:57:42.181Z,2.45
2022-10-24T20:00:09.266Z,2.03
2022-10-24T20:02:35.819Z,2.75
2022-10-24T20:05:02.419Z,2.30
2022-10-24T20:07:28.963Z,2.17
2022-10-24T20:09:55.501Z,2.13
2022-10-24T20:12:22.098Z,1.90
2022-10-24T20:14:48.690Z,2.28
2022-10-24T20:17:15.291Z,2.22
2022-10-24T20:19:41.899Z,2.17
2022-10-24T20:22:08.462Z,1.70
2022-10-24T20:24:35.195Z,2.00
2022-10-24T20:27:01.841Z,1.75
2022-10-24T20:29:28.556Z,2.20
2022-10-24T20:31:55.170Z,1.75
2022-10-24T20:34:21.737Z,1.90
2022-10-24T20:36:48.385Z,1.77
2022-10-24T20:39:21.154Z,1.80
2022-10-24T20:41:51.698Z,2.10
2022-10-24T20:44:20.658Z,1.80
2022-10-24T20:46:47.213Z,1.70
2022-10-24T20:49:13.866Z,1.70
2022-10-24T20:51:42.507Z,1.70
2022-10-24T20:54:10.370Z,2.40
2022-10-24T20:56:41.965Z,1.92
2022-10-24T20:59:09.030Z,2.17
2022-10-24T21:01:35.689Z,2.13
2022-10-24T21:04:02.411Z,2.13
2022-10-24T21:06:31.906Z,1.60
2022-10-24T21:11:35.079Z,1.85
2022-10-24T21:14:07.709Z,1.63
2022-10-24T21:16:35.381Z,1.85
2022-10-24T21:19:02.796Z,2.35
2022-10-24T21:21:30.049Z,2.22
2022-10-24T21:24:02.391Z,2.00
2022-10-24T21:26:32.973Z,1.95
2022-10-24T21:29:08.843Z,2.03
2022-10-24T21:31:41.300Z,1.77
2022-10-24T21:34:08.144Z,2.33
2022-10-24T21:36:34.735Z,1.90
2022-10-24T21:39:01.333Z,1.92
2022-10-24T21:41:28.390Z,1.58
2022-10-24T21:43:55.352Z,2.03
2022-10-24T21:46:24.694Z,2.20
2022-10-24T21:48:52.718Z,1.58
2022-10-24T21:51:21.720Z,1.85
2022-10-24T21:53:53.871Z,2.08
2022-10-24T21:56:23.082Z,2.15
2022-10-24T22:01:35.657Z,1.50
2022-10-24T22:04:02.695Z,2.10
2022-10-24T22:06:30.838Z,2.05
2022-10-24T22:08:57.959Z,1.60
2022-10-24T22:11:30.566Z,2.35
2022-10-24T22:13:57.673Z,1.58
2022-10-24T22:16:26.602Z,1.77
2022-10-24T22:18:53.362Z,1.73
2022-10-24T22:21:34.762Z,2.58
2022-10-24T22:24:04.612Z,1.98
2022-10-24T22:26:31.588Z,1.92
2022-10-24T22:28:58.092Z,2.00
2022-10-24T22:31:26.797Z,2.28
2022-10-24T22:33:55.040Z,2.10
2022-10-24T22:36:33.480Z,2.22
2022-10-24T22:39:00.195Z,2.15
2022-10-24T22:41:30.138Z,2.17
2022-10-24T22:43:57.103Z,1.85
2022-10-24T22:46:54.310Z,2.33
2022-10-24T22:49:33.004Z,1.80
2022-10-24T22:52:00.000Z,1.92
2022-10-24T22:54:32.828Z,1.83
2022-10-24T22:56:59.501Z,1.90
2022-10-24T22:59:26.260Z,1.55
2022-10-24T23:02:31.166Z,2.03
2022-10-24T23:05:01.049Z,2.00
2022-10-24T23:07:45.589Z,2.20
2022-10-24T23:10:18.795Z,1.60
2022-10-24T23:12:46.404Z,2.17
2022-10-24T23:15:14.295Z,1.60
2022-10-24T23:17:44.223Z,2.00
2022-10-24T23:20:42.933Z,2.20
2022-10-24T23:23:29.910Z,1.98
2022-10-24T23:26:08.576Z,1.70
2022-10-24T23:28:50.219Z,2.37
2022-10-24T23:31:28.746Z,2.28
2022-10-24T23:34:03.395Z,2.07
2022-10-24T23:36:32.658Z,2.00
2022-10-24T23:39:07.566Z,2.25
2022-10-24T23:41:34.319Z,1.65
2022-10-24T23:44:01.163Z,1.95
2022-10-24T23:46:35.826Z,2.30
2022-10-24T23:49:17.907Z,2.28
2022-10-24T23:52:01.677Z,1.98
2022-10-24T23:54:31.579Z,2.30
2022-10-24T23:56:58.562Z,1.90
2022-10-24T23:59:25.128Z,2.20
